sensor_id;sensor_type;location;lat;lon;timestamp;temperature;humidity
28244;DHT22;15510;52.512;13.300;2022-08-20T00:00:33;21.70;99.90
28244;DHT22;15510;52.512;13.300;2022-08-20T00:03:14;21.70;99.90
28244;DHT22;15510;52.512;13.300;2022-08-20T00:05:44;21.70;99.90
28244;DHT22;15510;52.512;13.300;2022-08-20T00:08:10;21.70;99.90
28244;DHT22;15510;52.512;13.300;2022-08-20T00:10:41;21.70;99.90
28244;DHT22;15510;52.512;13.300;2022-08-20T00:13:10;21.70;99.90
28244;DHT22;15510;52.512;13.300;2022-08-20T00:15:39;21.70;99.90
28244;DHT22;15510;52.512;13.300;2022-08-20T00:18:06;21.70;99.90
28244;DHT22;15510;52.512;13.300;2022-08-20T00:20:38;21.70;99.90
28244;DHT22;15510;52.512;13.300;2022-08-20T00:23:04;21.70;99.90
28244;DHT22;15510;52.512;13.300;2022-08-20T00:25:30;21.60;99.90
28244;DHT22;15510;52.512;13.300;2022-08-20T00:27:56;21.60;99.90
28244;DHT22;15510;52.512;13.300;2022-08-20T00:30:24;21.60;99.90
28244;DHT22;15510;52.512;13.300;2022-08-20T00:32:54;21.50;99.90
28244;DHT22;15510;52.512;13.300;2022-08-20T00:35:23;21.50;99.90
28244;DHT22;15510;52.512;13.300;2022-08-20T00:37:49;21.60;99.90
28244;DHT22;15510;52.512;13.300;2022-08-20T00:40:17;21.60;99.90
28244;DHT22;15510;52.512;13.300;2022-08-20T00:42:46;21.60;99.90
28244;DHT22;15510;52.512;13.300;2022-08-20T00:45:13;21.50;99.90
28244;DHT22;15510;52.512;13.300;2022-08-20T00:47:39;21.50;99.90
28244;DHT22;15510;52.512;13.300;2022-08-20T00:50:07;21.50;99.90
28244;DHT22;15510;52.512;13.300;2022-08-20T00:52:34;21.50;99.90
28244;DHT22;15510;52.512;13.300;2022-08-20T00:55:02;21.40;99.90
28244;DHT22;15510;52.512;13.300;2022-08-20T00:57:36;21.40;99.90
28244;DHT22;15510;52.512;13.300;2022-08-20T01:00:07;21.40;99.90
28244;DHT22;15510;52.512;13.300;2022-08-20T01:02:35;21.30;99.90
28244;DHT22;15510;52.512;13.300;2022-08-20T01:05:01;21.20;99.90
28244;DHT22;15510;52.512;13.300;2022-08-20T01:07:27;21.20;99.90
28244;DHT22;15510;52.512;13.300;2022-08-20T01:10:06;21.20;99.90
28244;DHT22;15510;52.512;13.300;2022-08-20T01:12:32;21.30;99.90
28244;DHT22;15510;52.512;13.300;2022-08-20T01:15:00;21.20;99.90
28244;DHT22;15510;52.512;13.300;2022-08-20T01:17:30;21.30;99.90
28244;DHT22;15510;52.512;13.300;2022-08-20T01:19:59;21.30;99.90
28244;DHT22;15510;52.512;13.300;2022-08-20T01:22:39;21.30;99.90
28244;DHT22;15510;52.512;13.300;2022-08-20T01:25:46;21.30;99.90
28244;DHT22;15510;52.512;13.300;2022-08-20T01:28:15;21.20;99.90
28244;DHT22;15510;52.512;13.300;2022-08-20T01:30:42;21.20;99.90
28244;DHT22;15510;52.512;13.300;2022-08-20T01:33:08;21.10;99.90
28244;DHT22;15510;52.512;13.300;2022-08-20T01:35:39;21.00;99.90
28244;DHT22;15510;52.512;13.300;2022-08-20T01:38:05;20.90;99.90
28244;DHT22;15510;52.512;13.300;2022-08-20T01:43:35;20.60;99.90
28244;DHT22;15510;52.512;13.300;2022-08-20T01:46:02;20.50;99.90
28244;DHT22;15510;52.512;13.300;2022-08-20T01:48:28;20.40;99.90
28244;DHT22;15510;52.512;13.300;2022-08-20T01:51:12;20.40;99.90
28244;DHT22;15510;52.512;13.300;2022-08-20T01:53:43;20.30;99.90
28244;DHT22;15510;52.512;13.300;2022-08-20T01:56:13;20.30;99.90
28244;DHT22;15510;52.512;13.300;2022-08-20T01:58:43;20.20;99.90
28244;DHT22;15510;52.512;13.300;2022-08-20T02:01:36;20.20;99.90
28244;DHT22;15510;52.512;13.300;2022-08-20T02:04:04;20.20;99.90
28244;DHT22;15510;52.512;13.300;2022-08-20T02:06:33;20.20;99.90
28244;DHT22;15510;52.512;13.300;2022-08-20T02:09:02;20.10;99.90
28244;DHT22;15510;52.512;13.300;2022-08-20T02:11:30;20.10;99.90
28244;DHT22;15510;52.512;13.300;2022-08-20T02:13:56;20.10;99.90
28244;DHT22;15510;52.512;13.300;2022-08-20T02:16:26;20.10;99.90
28244;DHT22;15510;52.512;13.300;2022-08-20T02:19:03;20.10;99.90
28244;DHT22;15510;52.512;13.300;2022-08-20T02:21:30;20.10;99.90
28244;DHT22;15510;52.512;13.300;2022-08-20T02:23:57;20.10;99.90
28244;DHT22;15510;52.512;13.300;2022-08-20T02:26:24;20.10;99.90
28244;DHT22;15510;52.512;13.300;2022-08-20T02:28:51;20.10;99.90
28244;DHT22;15510;52.512;13.300;2022-08-20T02:33:46;20.10;99.90
28244;DHT22;15510;52.512;13.300;2022-08-20T02:36:13;20.10;99.90
28244;DHT22;15510;52.512;13.300;2022-08-20T02:38:41;20.10;99.90
28244;DHT22;15510;52.512;13.300;2022-08-20T02:41:07;20.10;99.90
28244;DHT22;15510;52.512;13.300;2022-08-20T02:43:35;20.20;99.90
28244;DHT22;15510;52.512;13.300;2022-08-20T02:46:02;20.20;99.90
28244;DHT22;15510;52.512;13.300;2022-08-20T02:48:29;20.30;99.90
28244;DHT22;15510;52.512;13.300;2022-08-20T02:51:02;20.30;99.90
28244;DHT22;15510;52.512;13.300;2022-08-20T02:53:30;20.30;99.90
28244;DHT22;15510;52.512;13.300;2022-08-20T02:55:56;20.30;99.90
28244;DHT22;15510;52.512;13.300;2022-08-20T02:58:22;20.30;99.90
28244;DHT22;15510;52.512;13.300;2022-08-20T03:00:48;20.30;99.90
28244;DHT22;15510;52.512;13.300;2022-08-20T03:03:15;20.30;99.90
28244;DHT22;15510;52.512;13.300;2022-08-20T03:05:44;20.30;99.90
28244;DHT22;15510;52.512;13.300;2022-08-20T03:08:12;20.30;99.90
28244;DHT22;15510;52.512;13.300;2022-08-20T03:10:38;20.30;99.90
28244;DHT22;15510;52.512;13.300;2022-08-20T03:13:06;20.30;99.90
28244;DHT22;15510;52.512;13.300;2022-08-20T03:15:35;20.30;99.90
28244;DHT22;15510;52.512;13.300;2022-08-20T03:18:01;20.30;99.90
28244;DHT22;15510;52.512;13.300;2022-08-20T03:20:28;20.30;99.90
28244;DHT22;15510;52.512;13.300;2022-08-20T03:22:54;20.40;99.90
28244;DHT22;15510;52.512;13.300;2022-08-20T03:25:20;20.40;99.90
28244;DHT22;15510;52.512;13.300;2022-08-20T03:27:46;20.40;99.90
28244;DHT22;15510;52.512;13.300;2022-08-20T03:30:15;20.40;99.90
28244;DHT22;15510;52.512;13.300;2022-08-20T03:32:41;20.40;99.90
28244;DHT22;15510;52.512;13.300;2022-08-20T03:35:10;20.40;99.90
28244;DHT22;15510;52.512;13.300;2022-08-20T03:37:36;20.40;99.90
28244;DHT22;15510;52.512;13.300;2022-08-20T03:40:05;20.40;99.90
28244;DHT22;15510;52.512;13.300;2022-08-20T03:42:31;20.40;99.90
28244;DHT22;15510;52.512;13.300;2022-08-20T03:44:57;20.50;99.90
28244;DHT22;15510;52.512;13.300;2022-08-20T03:47:23;20.50;99.90
28244;DHT22;15510;52.512;13.300;2022-08-20T03:49:49;20.50;99.90
28244;DHT22;15510;52.512;13.300;2022-08-20T03:52:15;20.60;99.90
28244;DHT22;15510;52.512;13.300;2022-08-20T03:54:42;20.60;99.90
28244;DHT22;15510;52.512;13.300;2022-08-20T03:57:14;20.60;99.90
28244;DHT22;15510;52.512;13.300;2022-08-20T03:59:41;20.60;99.90
28244;DHT22;15510;52.512;13.300;2022-08-20T04:02:07;20.50;99.90
28244;DHT22;15510;52.512;13.300;2022-08-20T04:04:33;20.60;99.90
28244;DHT22;15510;52.512;13.300;2022-08-20T04:06:59;20.60;99.90
28244;DHT22;15510;52.512;13.300;2022-08-20T04:09:24;20.60;99.90
28244;DHT22;15510;52.512;13.300;2022-08-20T04:11:50;20.60;99.90
28244;DHT22;15510;52.512;13.300;2022-08-20T04:14:17;20.60;99.90
28244;DHT22;15510;52.512;13.300;2022-08-20T04:16:43;20.60;99.90
28244;DHT22;15510;52.512;13.300;2022-08-20T04:19:09;20.70;99.90
28244;DHT22;15510;52.512;13.300;2022-08-20T04:21:35;20.80;99.90
28244;DHT22;15510;52.512;13.300;2022-08-20T04:24:03;20.70;99.90
28244;DHT22;15510;52.512;13.300;2022-08-20T04:26:30;20.80;99.90
28244;DHT22;15510;52.512;13.300;2022-08-20T04:28:55;20.80;99.90
28244;DHT22;15510;52.512;13.300;2022-08-20T04:31:22;20.80;99.90
28244;DHT22;15510;52.512;13.300;2022-08-20T04:34:01;20.80;99.90
28244;DHT22;15510;52.512;13.300;2022-08-20T04:36:28;20.70;99.90
28244;DHT22;15510;52.512;13.300;2022-08-20T04:38:53;20.70;99.90
28244;DHT22;15510;52.512;13.300;2022-08-20T04:41:20;20.70;99.90
28244;DHT22;15510;52.512;13.300;2022-08-20T04:43:46;20.70;99.90
28244;DHT22;15510;52.512;13.300;2022-08-20T04:46:11;20.70;99.90
28244;DHT22;15510;52.512;13.300;2022-08-20T04:48:39;20.70;99.90
28244;DHT22;15510;52.512;13.300;2022-08-20T04:51:07;20.70;99.90
28244;DHT22;15510;52.512;13.300;2022-08-20T04:53:33;20.80;99.90
28244;DHT22;15510;52.512;13.300;2022-08-20T04:56:00;20.80;99.90
28244;DHT22;15510;52.512;13.300;2022-08-20T04:58:28;20.90;99.90
28244;DHT22;15510;52.512;13.300;2022-08-20T05:01:03;20.90;99.90
28244;DHT22;15510;52.512;13.300;2022-08-20T05:03:29;20.90;99.90
28244;DHT22;15510;52.512;13.300;2022-08-20T05:05:56;21.00;99.90
28244;DHT22;15510;52.512;13.300;2022-08-20T05:08:23;21.00;99.90
28244;DHT22;15510;52.512;13.300;2022-08-20T05:10:50;21.00;99.90
28244;DHT22;15510;52.512;13.300;2022-08-20T05:13:16;21.10;99.90
28244;DHT22;15510;52.512;13.300;2022-08-20T05:15:43;21.10;99.90
28244;DHT22;15510;52.512;13.300;2022-08-20T05:18:10;21.10;99.90
28244;DHT22;15510;52.512;13.300;2022-08-20T05:20:39;21.10;99.90
28244;DHT22;15510;52.512;13.300;2022-08-20T05:23:08;21.00;99.90
28244;DHT22;15510;52.512;13.300;2022-08-20T05:25:34;21.10;99.90
28244;DHT22;15510;52.512;13.300;2022-08-20T05:28:05;21.20;99.90
28244;DHT22;15510;52.512;13.300;2022-08-20T05:30:38;21.20;99.90
28244;DHT22;15510;52.512;13.300;2022-08-20T05:33:06;21.30;99.90
28244;DHT22;15510;52.512;13.300;2022-08-20T05:35:34;21.20;99.90
28244;DHT22;15510;52.512;13.300;2022-08-20T05:38:01;21.20;99.90
28244;DHT22;15510;52.512;13.300;2022-08-20T05:40:27;21.20;99.90
28244;DHT22;15510;52.512;13.300;2022-08-20T05:42:53;21.10;99.90
28244;DHT22;15510;52.512;13.300;2022-08-20T05:45:20;21.20;99.90
28244;DHT22;15510;52.512;13.300;2022-08-20T05:47:46;21.30;99.90
28244;DHT22;15510;52.512;13.300;2022-08-20T05:50:14;21.30;99.90
28244;DHT22;15510;52.512;13.300;2022-08-20T05:52:40;21.30;99.90
28244;DHT22;15510;52.512;13.300;2022-08-20T05:55:08;21.30;99.90
28244;DHT22;15510;52.512;13.300;2022-08-20T05:57:34;21.30;99.90
28244;DHT22;15510;52.512;13.300;2022-08-20T06:00:00;21.20;99.90
28244;DHT22;15510;52.512;13.300;2022-08-20T06:02:37;21.20;99.90
28244;DHT22;15510;52.512;13.300;2022-08-20T06:05:21;21.20;99.90
28244;DHT22;15510;52.512;13.300;2022-08-20T06:07:47;21.10;99.90
28244;DHT22;15510;52.512;13.300;2022-08-20T06:10:15;21.10;99.90
28244;DHT22;15510;52.512;13.300;2022-08-20T06:12:41;21.10;99.90
28244;DHT22;15510;52.512;13.300;2022-08-20T06:15:09;21.20;99.90
28244;DHT22;15510;52.512;13.300;2022-08-20T06:17:34;21.20;99.90
28244;DHT22;15510;52.512;13.300;2022-08-20T06:20:03;21.20;99.90
28244;DHT22;15510;52.512;13.300;2022-08-20T06:22:31;21.20;99.90
28244;DHT22;15510;52.512;13.300;2022-08-20T06:24:57;21.30;99.90
28244;DHT22;15510;52.512;13.300;2022-08-20T06:27:23;21.30;99.90
28244;DHT22;15510;52.512;13.300;2022-08-20T06:29:49;21.30;99.90
28244;DHT22;15510;52.512;13.300;2022-08-20T06:32:15;21.30;99.90
28244;DHT22;15510;52.512;13.300;2022-08-20T06:34:41;21.30;99.90
28244;DHT22;15510;52.512;13.300;2022-08-20T06:37:19;21.20;99.90
28244;DHT22;15510;52.512;13.300;2022-08-20T06:39:45;21.20;99.90
28244;DHT22;15510;52.512;13.300;2022-08-20T06:42:11;21.20;99.90
28244;DHT22;15510;52.512;13.300;2022-08-20T06:44:36;21.30;99.90
28244;DHT22;15510;52.512;13.300;2022-08-20T06:47:03;21.30;99.90
28244;DHT22;15510;52.512;13.300;2022-08-20T06:49:30;21.30;99.90
28244;DHT22;15510;52.512;13.300;2022-08-20T06:51:56;21.40;99.90
28244;DHT22;15510;52.512;13.300;2022-08-20T06:54:22;21.30;99.90
28244;DHT22;15510;52.512;13.300;2022-08-20T06:56:49;21.30;99.90
28244;DHT22;15510;52.512;13.300;2022-08-20T06:59:14;21.30;99.90
28244;DHT22;15510;52.512;13.300;2022-08-20T07:01:40;21.30;99.90
28244;DHT22;15510;52.512;13.300;2022-08-20T07:04:05;21.40;99.90
28244;DHT22;15510;52.512;13.300;2022-08-20T07:06:32;21.40;99.90
28244;DHT22;15510;52.512;13.300;2022-08-20T07:08:58;21.40;99.90
28244;DHT22;15510;52.512;13.300;2022-08-20T07:11:24;21.50;99.90
28244;DHT22;15510;52.512;13.300;2022-08-20T07:13:50;21.50;99.90
28244;DHT22;15510;52.512;13.300;2022-08-20T07:16:16;21.50;99.90
28244;DHT22;15510;52.512;13.300;2022-08-20T07:18:41;21.50;99.90
28244;DHT22;15510;52.512;13.300;2022-08-20T07:21:07;21.40;99.90
28244;DHT22;15510;52.512;13.300;2022-08-20T07:23:33;21.40;99.90
28244;DHT22;15510;52.512;13.300;2022-08-20T07:26:00;21.40;99.90
28244;DHT22;15510;52.512;13.300;2022-08-20T07:28:28;21.50;99.90
28244;DHT22;15510;52.512;13.300;2022-08-20T07:30:54;21.50;99.90
28244;DHT22;15510;52.512;13.300;2022-08-20T07:33:38;21.70;99.90
28244;DHT22;15510;52.512;13.300;2022-08-20T07:36:05;21.70;99.90
28244;DHT22;15510;52.512;13.300;2022-08-20T07:38:32;21.70;99.90
28244;DHT22;15510;52.512;13.300;2022-08-20T07:41:04;21.80;99.90
28244;DHT22;15510;52.512;13.300;2022-08-20T07:43:31;21.70;99.90
28244;DHT22;15510;52.512;13.300;2022-08-20T07:45:58;21.70;99.90
28244;DHT22;15510;52.512;13.300;2022-08-20T07:48:32;21.60;99.90
28244;DHT22;15510;52.512;13.300;2022-08-20T07:51:01;21.50;99.90
28244;DHT22;15510;52.512;13.300;2022-08-20T07:53:28;21.50;99.90
28244;DHT22;15510;52.512;13.300;2022-08-20T07:55:54;21.50;99.90
28244;DHT22;15510;52.512;13.300;2022-08-20T07:58:20;21.50;99.90
28244;DHT22;15510;52.512;13.300;2022-08-20T08:00:50;21.60;99.90
28244;DHT22;15510;52.512;13.300;2022-08-20T08:03:15;21.60;99.90
28244;DHT22;15510;52.512;13.300;2022-08-20T08:05:45;21.70;99.90
28244;DHT22;15510;52.512;13.300;2022-08-20T08:08:16;21.80;99.90
28244;DHT22;15510;52.512;13.300;2022-08-20T08:10:46;21.90;99.90
28244;DHT22;15510;52.512;13.300;2022-08-20T08:13:27;22.00;99.90
28244;DHT22;15510;52.512;13.300;2022-08-20T08:15:55;22.10;99.90
28244;DHT22;15510;52.512;13.300;2022-08-20T08:18:25;22.10;99.90
28244;DHT22;15510;52.512;13.300;2022-08-20T08:20:53;22.10;99.90
28244;DHT22;15510;52.512;13.300;2022-08-20T08:23:21;22.20;99.90
28244;DHT22;15510;52.512;13.300;2022-08-20T08:25:47;22.30;99.90
28244;DHT22;15510;52.512;13.300;2022-08-20T08:28:16;22.30;99.90
28244;DHT22;15510;52.512;13.300;2022-08-20T08:30:43;22.30;99.90
28244;DHT22;15510;52.512;13.300;2022-08-20T08:33:25;22.20;99.90
28244;DHT22;15510;52.512;13.300;2022-08-20T08:35:54;22.20;99.90
28244;DHT22;15510;52.512;13.300;2022-08-20T08:38:21;22.10;99.90
28244;DHT22;15510;52.512;13.300;2022-08-20T08:40:52;22.10;99.90
28244;DHT22;15510;52.512;13.300;2022-08-20T08:43:21;22.20;99.90
28244;DHT22;15510;52.512;13.300;2022-08-20T08:45:55;22.30;99.90
28244;DHT22;15510;52.512;13.300;2022-08-20T08:48:29;22.30;99.90
28244;DHT22;15510;52.512;13.300;2022-08-20T08:50:57;22.30;99.90
28244;DHT22;15510;52.512;13.300;2022-08-20T08:53:27;22.30;99.90
28244;DHT22;15510;52.512;13.300;2022-08-20T08:55:54;22.40;99.90
28244;DHT22;15510;52.512;13.300;2022-08-20T08:58:20;22.40;99.90
28244;DHT22;15510;52.512;13.300;2022-08-20T09:00:46;22.40;99.90
28244;DHT22;15510;52.512;13.300;2022-08-20T09:03:39;22.50;99.90
28244;DHT22;15510;52.512;13.300;2022-08-20T09:06:05;22.60;99.90
28244;DHT22;15510;52.512;13.300;2022-08-20T09:08:47;22.70;99.90
28244;DHT22;15510;52.512;13.300;2022-08-20T09:11:15;22.80;99.90
28244;DHT22;15510;52.512;13.300;2022-08-20T09:13:43;22.90;99.90
28244;DHT22;15510;52.512;13.300;2022-08-20T09:16:10;23.00;99.90
28244;DHT22;15510;52.512;13.300;2022-08-20T09:18:36;23.00;99.90
28244;DHT22;15510;52.512;13.300;2022-08-20T09:21:02;23.00;99.90
28244;DHT22;15510;52.512;13.300;2022-08-20T09:23:28;23.00;99.90
28244;DHT22;15510;52.512;13.300;2022-08-20T09:25:53;23.00;99.90
28244;DHT22;15510;52.512;13.300;2022-08-20T09:28:19;23.10;99.90
28244;DHT22;15510;52.512;13.300;2022-08-20T09:30:45;23.10;99.90
28244;DHT22;15510;52.512;13.300;2022-08-20T09:33:10;23.20;99.90
28244;DHT22;15510;52.512;13.300;2022-08-20T09:35:36;23.20;99.90
28244;DHT22;15510;52.512;13.300;2022-08-20T09:38:02;23.30;99.90
28244;DHT22;15510;52.512;13.300;2022-08-20T09:40:28;23.40;99.90
28244;DHT22;15510;52.512;13.300;2022-08-20T09:42:54;23.30;99.90
28244;DHT22;15510;52.512;13.300;2022-08-20T09:45:20;23.40;99.90
28244;DHT22;15510;52.512;13.300;2022-08-20T09:47:46;23.40;99.90
28244;DHT22;15510;52.512;13.300;2022-08-20T09:50:11;23.50;99.90
28244;DHT22;15510;52.512;13.300;2022-08-20T09:52:41;23.50;99.90
28244;DHT22;15510;52.512;13.300;2022-08-20T09:55:37;23.50;99.90
28244;DHT22;15510;52.512;13.300;2022-08-20T09:58:18;23.60;99.90
28244;DHT22;15510;52.512;13.300;2022-08-20T10:00:45;23.80;99.90
28244;DHT22;15510;52.512;13.300;2022-08-20T10:03:10;23.90;99.90
28244;DHT22;15510;52.512;13.300;2022-08-20T10:05:36;23.80;99.90
28244;DHT22;15510;52.512;13.300;2022-08-20T10:08:07;24.00;99.90
28244;DHT22;15510;52.512;13.300;2022-08-20T10:10:32;23.90;99.90
28244;DHT22;15510;52.512;13.300;2022-08-20T10:12:58;24.00;99.90
28244;DHT22;15510;52.512;13.300;2022-08-20T10:15:24;24.10;99.90
28244;DHT22;15510;52.512;13.300;2022-08-20T10:17:50;24.30;99.90
28244;DHT22;15510;52.512;13.300;2022-08-20T10:20:16;24.50;99.90
28244;DHT22;15510;52.512;13.300;2022-08-20T10:22:43;24.60;99.90
28244;DHT22;15510;52.512;13.300;2022-08-20T10:25:10;24.60;99.90
28244;DHT22;15510;52.512;13.300;2022-08-20T10:27:36;24.70;99.90
28244;DHT22;15510;52.512;13.300;2022-08-20T10:30:05;24.70;99.90
28244;DHT22;15510;52.512;13.300;2022-08-20T10:32:31;24.90;99.90
28244;DHT22;15510;52.512;13.300;2022-08-20T10:34:57;24.90;99.90
28244;DHT22;15510;52.512;13.300;2022-08-20T10:37:23;24.80;99.90
28244;DHT22;15510;52.512;13.300;2022-08-20T10:39:50;24.90;99.90
28244;DHT22;15510;52.512;13.300;2022-08-20T10:42:16;25.10;99.90
28244;DHT22;15510;52.512;13.300;2022-08-20T10:44:42;25.20;99.90
28244;DHT22;15510;52.512;13.300;2022-08-20T10:49:40;25.60;99.90
28244;DHT22;15510;52.512;13.300;2022-08-20T10:52:05;25.80;99.90
28244;DHT22;15510;52.512;13.300;2022-08-20T10:54:31;25.90;99.90
28244;DHT22;15510;52.512;13.300;2022-08-20T10:57:04;26.00;99.90
28244;DHT22;15510;52.512;13.300;2022-08-20T10:59:30;26.00;99.90
28244;DHT22;15510;52.512;13.300;2022-08-20T11:01:58;25.80;99.90
28244;DHT22;15510;52.512;13.300;2022-08-20T11:04:24;25.50;99.90
28244;DHT22;15510;52.512;13.300;2022-08-20T11:06:50;25.50;99.90
28244;DHT22;15510;52.512;13.300;2022-08-20T11:09:15;25.50;99.90
28244;DHT22;15510;52.512;13.300;2022-08-20T11:11:41;25.50;99.90
28244;DHT22;15510;52.512;13.300;2022-08-20T11:14:07;25.50;99.90
28244;DHT22;15510;52.512;13.300;2022-08-20T11:16:32;25.30;99.90
28244;DHT22;15510;52.512;13.300;2022-08-20T11:18:58;25.20;99.90
28244;DHT22;15510;52.512;13.300;2022-08-20T11:21:24;25.30;99.90
28244;DHT22;15510;52.512;13.300;2022-08-20T11:23:49;25.30;99.90
28244;DHT22;15510;52.512;13.300;2022-08-20T11:26:22;25.40;99.90
28244;DHT22;15510;52.512;13.300;2022-08-20T11:28:48;25.40;99.90
28244;DHT22;15510;52.512;13.300;2022-08-20T11:31:14;25.40;99.90
28244;DHT22;15510;52.512;13.300;2022-08-20T11:33:39;25.20;99.90
28244;DHT22;15510;52.512;13.300;2022-08-20T11:36:05;25.10;99.90
28244;DHT22;15510;52.512;13.300;2022-08-20T11:38:31;25.00;99.90
28244;DHT22;15510;52.512;13.300;2022-08-20T11:40:56;24.80;99.90
28244;DHT22;15510;52.512;13.300;2022-08-20T11:43:22;24.70;99.90
28244;DHT22;15510;52.512;13.300;2022-08-20T11:45:54;24.50;99.90
28244;DHT22;15510;52.512;13.300;2022-08-20T11:48:20;24.40;99.90
28244;DHT22;15510;52.512;13.300;2022-08-20T11:50:47;24.40;99.90
28244;DHT22;15510;52.512;13.300;2022-08-20T11:53:13;24.40;99.90
28244;DHT22;15510;52.512;13.300;2022-08-20T11:55:38;24.40;99.90
28244;DHT22;15510;52.512;13.300;2022-08-20T11:58:05;24.30;99.90
28244;DHT22;15510;52.512;13.300;2022-08-20T12:00:31;24.30;99.90
28244;DHT22;15510;52.512;13.300;2022-08-20T12:02:59;24.40;99.90
28244;DHT22;15510;52.512;13.300;2022-08-20T12:05:25;24.40;99.90
28244;DHT22;15510;52.512;13.300;2022-08-20T12:07:53;24.30;99.90
28244;DHT22;15510;52.512;13.300;2022-08-20T12:10:19;24.40;99.90
28244;DHT22;15510;52.512;13.300;2022-08-20T12:12:44;24.50;99.90
28244;DHT22;15510;52.512;13.300;2022-08-20T12:15:10;24.50;99.90
28244;DHT22;15510;52.512;13.300;2022-08-20T12:17:36;24.60;99.90
28244;DHT22;15510;52.512;13.300;2022-08-20T12:20:07;24.60;99.90
28244;DHT22;15510;52.512;13.300;2022-08-20T12:22:33;24.60;99.90
28244;DHT22;15510;52.512;13.300;2022-08-20T12:24:59;24.70;99.90
28244;DHT22;15510;52.512;13.300;2022-08-20T12:27:29;24.80;99.90
28244;DHT22;15510;52.512;13.300;2022-08-20T12:29:57;24.70;99.90
28244;DHT22;15510;52.512;13.300;2022-08-20T12:32:26;24.70;99.90
28244;DHT22;15510;52.512;13.300;2022-08-20T12:34:53;24.80;99.90
28244;DHT22;15510;52.512;13.300;2022-08-20T12:37:22;24.70;99.90
28244;DHT22;15510;52.512;13.300;2022-08-20T12:39:51;24.70;99.90
28244;DHT22;15510;52.512;13.300;2022-08-20T12:42:18;24.60;99.90
28244;DHT22;15510;52.512;13.300;2022-08-20T12:44:44;24.40;99.90
28244;DHT22;15510;52.512;13.300;2022-08-20T12:49:40;24.30;99.90
28244;DHT22;15510;52.512;13.300;2022-08-20T12:52:07;24.20;99.90
28244;DHT22;15510;52.512;13.300;2022-08-20T12:54:34;24.20;99.90
28244;DHT22;15510;52.512;13.300;2022-08-20T12:57:00;24.20;99.90
28244;DHT22;15510;52.512;13.300;2022-08-20T12:59:26;24.20;99.90
28244;DHT22;15510;52.512;13.300;2022-08-20T13:01:52;24.20;99.90
28244;DHT22;15510;52.512;13.300;2022-08-20T13:04:19;24.10;99.90
28244;DHT22;15510;52.512;13.300;2022-08-20T13:06:46;24.00;99.90
28244;DHT22;15510;52.512;13.300;2022-08-20T13:09:14;24.00;99.90
28244;DHT22;15510;52.512;13.300;2022-08-20T13:11:40;23.90;99.90
28244;DHT22;15510;52.512;13.300;2022-08-20T13:14:05;23.90;99.90
28244;DHT22;15510;52.512;13.300;2022-08-20T13:16:31;23.80;99.90
28244;DHT22;15510;52.512;13.300;2022-08-20T13:18:57;23.70;99.90
28244;DHT22;15510;52.512;13.300;2022-08-20T13:21:23;23.60;99.90
28244;DHT22;15510;52.512;13.300;2022-08-20T13:23:48;23.50;99.90
28244;DHT22;15510;52.512;13.300;2022-08-20T13:26:14;23.40;99.90
28244;DHT22;15510;52.512;13.300;2022-08-20T13:28:40;23.30;99.90
28244;DHT22;15510;52.512;13.300;2022-08-20T13:31:05;23.10;99.90
28244;DHT22;15510;52.512;13.300;2022-08-20T13:33:31;22.90;99.90
28244;DHT22;15510;52.512;13.300;2022-08-20T13:35:57;22.80;99.90
28244;DHT22;15510;52.512;13.300;2022-08-20T13:38:23;22.70;99.90
28244;DHT22;15510;52.512;13.300;2022-08-20T13:40:49;22.60;99.90
28244;DHT22;15510;52.512;13.300;2022-08-20T13:43:15;22.50;99.90
28244;DHT22;15510;52.512;13.300;2022-08-20T13:45:40;22.50;99.90
28244;DHT22;15510;52.512;13.300;2022-08-20T13:48:07;22.40;99.90
28244;DHT22;15510;52.512;13.300;2022-08-20T13:50:33;22.20;99.90
28244;DHT22;15510;52.512;13.300;2022-08-20T13:52:59;21.90;99.90
28244;DHT22;15510;52.512;13.300;2022-08-20T13:55:26;21.70;99.90
28244;DHT22;15510;52.512;13.300;2022-08-20T13:57:52;21.50;99.90
28244;DHT22;15510;52.512;13.300;2022-08-20T14:00:28;21.40;99.90
28244;DHT22;15510;52.512;13.300;2022-08-20T14:02:54;21.20;99.90
28244;DHT22;15510;52.512;13.300;2022-08-20T14:05:21;21.20;99.90
28244;DHT22;15510;52.512;13.300;2022-08-20T14:07:48;21.10;99.90
28244;DHT22;15510;52.512;13.300;2022-08-20T14:10:18;21.00;99.90
28244;DHT22;15510;52.512;13.300;2022-08-20T14:12:45;20.90;99.90
28244;DHT22;15510;52.512;13.300;2022-08-20T14:15:11;20.90;99.90
28244;DHT22;15510;52.512;13.300;2022-08-20T14:17:39;20.90;99.90
28244;DHT22;15510;52.512;13.300;2022-08-20T14:20:10;20.90;99.90
28244;DHT22;15510;52.512;13.300;2022-08-20T14:22:37;20.90;99.90
28244;DHT22;15510;52.512;13.300;2022-08-20T14:25:05;20.90;99.90
28244;DHT22;15510;52.512;13.300;2022-08-20T14:27:32;20.80;99.90
28244;DHT22;15510;52.512;13.300;2022-08-20T14:29:58;20.90;99.90
28244;DHT22;15510;52.512;13.300;2022-08-20T14:32:25;20.90;99.90
28244;DHT22;15510;52.512;13.300;2022-08-20T14:34:52;20.90;99.90
28244;DHT22;15510;52.512;13.300;2022-08-20T14:37:22;21.00;99.90
28244;DHT22;15510;52.512;13.300;2022-08-20T14:39:51;21.10;99.90
28244;DHT22;15510;52.512;13.300;2022-08-20T14:42:17;21.20;99.90
28244;DHT22;15510;52.512;13.300;2022-08-20T14:44:43;21.30;99.90
28244;DHT22;15510;52.512;13.300;2022-08-20T14:49:39;21.60;99.90
28244;DHT22;15510;52.512;13.300;2022-08-20T14:52:05;21.70;99.90
28244;DHT22;15510;52.512;13.300;2022-08-20T14:54:31;21.70;99.90
28244;DHT22;15510;52.512;13.300;2022-08-20T14:56:58;21.90;99.90
28244;DHT22;15510;52.512;13.300;2022-08-20T14:59:23;22.00;99.90
28244;DHT22;15510;52.512;13.300;2022-08-20T15:01:49;22.00;99.90
28244;DHT22;15510;52.512;13.300;2022-08-20T15:04:15;22.10;99.90
28244;DHT22;15510;52.512;13.300;2022-08-20T15:06:40;22.10;99.90
28244;DHT22;15510;52.512;13.300;2022-08-20T15:09:06;22.10;99.90
28244;DHT22;15510;52.512;13.300;2022-08-20T15:11:31;22.00;99.90
28244;DHT22;15510;52.512;13.300;2022-08-20T15:13:58;22.00;99.90
28244;DHT22;15510;52.512;13.300;2022-08-20T15:16:24;22.00;99.90
28244;DHT22;15510;52.512;13.300;2022-08-20T15:18:49;21.90;99.90
28244;DHT22;15510;52.512;13.300;2022-08-20T15:21:15;21.80;99.90
28244;DHT22;15510;52.512;13.300;2022-08-20T15:23:40;21.80;99.90
28244;DHT22;15510;52.512;13.300;2022-08-20T15:26:06;21.80;99.90
28244;DHT22;15510;52.512;13.300;2022-08-20T15:28:32;21.80;99.90
28244;DHT22;15510;52.512;13.300;2022-08-20T15:30:57;21.80;99.90